ADDS METAR Data INFO
IDs: Format: Raw Decoded Include TAF

Data at: 0103 UTC 21 Oct 2017

KPVC 210056Z AUTO 29009KT 10SM CLR 16/10 A3008 RMK AO2 SLP185 T01560100
KPVC 202356Z AUTO 30008KT 10SM CLR 16/09 A3005 RMK AO2 SLP176 T01610089 10189 20144 53015
KPVC 202256Z AUTO 28003KT 10SM CLR 15/10 A3004 RMK AO2 SLP172 T01500100
KPVC 202156Z AUTO 29009KT 10SM CLR 16/09 A3002 RMK AO2 SLP164 T01610089
KPVC 202056Z AUTO 28009KT 10SM CLR 17/09 A3001 RMK AO2 SLP162 T01720094 53003
KPVC 201956Z AUTO 30008KT 10SM CLR 18/08 A3000 RMK AO2 SLP157 T01830083
KPVC 201856Z AUTO 31009KT 10SM CLR 18/08 A2999 RMK AO2 SLP155 T01830078
KPVC 201756Z AUTO 30011KT 10SM CLR 18/08 A3000 RMK AO2 SLP159 T01830083 10183 20144 56016
KPVC 201656Z AUTO 30016G19KT 10SM CLR 18/08 A3001 RMK AO2 SLP163 T01780083
KPVC 201556Z AUTO 30014KT 10SM CLR 18/09 A3003 RMK AO2 SLP167 T01780089
KPVC 201456Z AUTO 30013G17KT 10SM CLR 17/10 A3005 RMK AO2 SLP174 T01720100 50008
KPVC 201356Z AUTO 30014G19KT 10SM CLR 17/10 A3005 RMK AO2 SLP175 T01670100
KPVC 201256Z AUTO 29014KT 10SM CLR 16/11 A3004 RMK AO2 SLP170 T01560106
KPVC 201156Z AUTO 28010KT 10SM CLR 14/11 A3002 RMK AO2 SLP166 T01440106 10150 20139 53012
KPVC 201056Z AUTO 28011KT 10SM CLR 14/11 A3000 RMK AO2 SLP157 T01390106
KPVC 200956Z AUTO 27012KT 10SM CLR 14/11 A2999 RMK AO2 SLP155 T01440111
KPVC 200856Z AUTO 26009KT 10SM CLR 14/12 A2999 RMK AO2 SLP154 T01440117 55002
KPVC 200756Z AUTO 25010KT 10SM CLR 14/12 A2998 RMK AO2 SLP151 T01440122
KPVC 200656Z AUTO 24012KT 10SM CLR 15/13 A2998 RMK AO2 SLP150 T01500128
KPVC 200556Z AUTO 23011KT 10SM CLR 15/13 A3000 RMK AO2 SLP156 T01500133 10156 20150 58010
KPVC 200456Z AUTO 23014KT 10SM CLR 15/13 A3001 RMK AO2 SLP160 T01500133 402000122
KPVC 200356Z AUTO 22015KT 10SM CLR 15/13 A3002 RMK AO2 SLP163 T01500133
KPVC 200256Z AUTO 22017G22KT 10SM CLR 15/13 A3002 RMK AO2 SLP166 T01500133 56002
KPVC 200156Z AUTO 22018G21KT 10SM CLR 15/13 A3003 RMK AO2 SLP167 T01500133
KPVC 200056Z AUTO 22015G22KT 10SM CLR 15/13 A3003 RMK AO2 SLP167 T01500133
KPVC 192356Z AUTO 21018G26KT 10SM CLR 15/13 A3003 RMK AO2 PK WND 21026/2355 SLP168 T01500133 10200 20150 58016
KPVC 192256Z AUTO 21015KT 10SM CLR 16/13 A3005 RMK AO2 SLP175 T01560133
KPVC 192156Z AUTO 21014G22KT 10SM CLR 16/13 A3006 RMK AO2 SLP178 T01610128
KPVC 192056Z AUTO 21017G22KT 10SM CLR 17/13 A3008 RMK AO2 SLP184 T01720128 56020
KPVC 191956Z AUTO 21016G21KT 10SM CLR 18/12 A3009 RMK AO2 SLP188 T01830122
KPVC 191856Z AUTO 21015G22KT 10SM CLR 19/12 A3011 RMK AO2 SLP196 T01890122
KPVC 191756Z AUTO 21014G21KT 10SM CLR 20/12 A3014 RMK AO2 SLP204 T02000122 10200 20144 58029
KPVC 191656Z AUTO 21013G19KT 10SM CLR 20/13 A3017 RMK AO2 SLP216 T02000128
KPVC 191556Z AUTO 21015KT 10SM CLR 19/14 A3020 RMK AO2 SLP224 T01940144
KPVC 191456Z AUTO 19013KT 10SM CLR 18/15 A3022 RMK AO2 SLP233 T01830150 58011
KPVC 191356Z AUTO 20012KT 10SM CLR 17/15 A3024 RMK AO2 SLP239 T01670150
KPVC 191319Z AUTO 20011G16KT 10SM SCT003 16/15 A3024 RMK AO2